Time;durP1;ratioP1;P1;durP2;ratioP2;P2;SDS_P1;SDS_P2;PMS_P1;PMS_P2;Temp;Humidity;BMP_temperature;BMP_pressure;BME280_temperature;BME280_humidity;BME280_pressure;Samples;Min_cycle;Max_cycle;Signal;HPM_P1;HPM_P2
2022/12/14 00:01:41;;;;;;;21.60;12.68;;;;;;;-3.14;70.77;100789.02;1681491;84;21060;-89
2022/12/14 00:04:09;;;;;;;20.82;12.82;;;;;;;-3.17;70.76;100786.63;1678521;84;21056;-81
2022/12/14 00:06:37;;;;;;;19.80;12.47;;;;;;;-3.23;70.77;100789.97;1679386;84;21493;-88
2022/12/14 00:09:05;;;;;;;17.90;11.25;;;;;;;-3.26;70.85;100783.31;1683613;84;21079;-81
2022/12/14 00:11:33;;;;;;;21.57;12.43;;;;;;;-3.30;70.87;100788.59;1686240;84;21838;-81
2022/12/14 00:14:01;;;;;;;17.67;11.35;;;;;;;-3.35;70.84;100787.31;1673473;84;21494;-81
2022/12/14 00:16:31;;;;;;;17.52;10.88;;;;;;;-3.41;70.80;100788.12;1682229;84;21917;-81
2022/12/14 00:18:59;;;;;;;16.70;11.20;;;;;;;-3.49;70.83;100787.50;1682128;84;21059;-80
2022/12/14 00:21:28;;;;;;;17.62;12.03;;;;;;;-3.56;70.84;100787.38;1682948;84;21167;-81
2022/12/14 00:23:58;;;;;;;20.68;11.08;;;;;;;-3.62;70.87;100785.95;1675951;84;23165;-81
2022/12/14 00:26:27;;;;;;;17.57;10.72;;;;;;;-3.67;70.90;100788.56;1682969;84;21632;-81
2022/12/14 00:28:54;;;;;;;18.20;11.08;;;;;;;-3.73;70.99;100787.67;1688270;84;21111;-81
2022/12/14 00:31:21;;;;;;;15.80;10.03;;;;;;;-3.79;70.97;100790.64;1669238;84;21426;-89
2022/12/14 00:33:49;;;;;;;14.45;9.20;;;;;;;-3.83;71.01;100795.02;1683614;84;21091;-89
2022/12/14 00:36:16;;;;;;;16.52;9.95;;;;;;;-3.88;71.13;100805.30;1682589;84;21762;-89
2022/12/14 00:38:42;;;;;;;17.42;10.13;;;;;;;-3.89;71.21;100802.60;1667135;84;21989;-81
2022/12/14 00:41:10;;;;;;;20.75;10.65;;;;;;;-3.88;71.26;100805.30;1676517;84;22117;-88
2022/12/14 00:43:36;;;;;;;15.25;9.93;;;;;;;-3.87;71.31;100808.38;1669242;84;21063;-81
2022/12/14 00:46:03;;;;;;;16.55;10.58;;;;;;;-3.85;71.39;100802.97;1678352;84;21074;-81
2022/12/14 00:48:30;;;;;;;17.87;10.20;;;;;;;-3.82;71.35;100804.52;1675203;84;21766;-81
2022/12/14 00:50:57;;;;;;;17.27;10.90;;;;;;;-3.80;71.34;100802.08;1688698;84;21513;-88
2022/12/14 00:53:24;;;;;;;18.92;10.75;;;;;;;-3.77;71.35;100802.34;1687390;84;21453;-81
2022/12/14 00:55:51;;;;;;;18.35;11.35;;;;;;;-3.91;71.31;100777.64;1674962;84;21125;-81
2022/12/14 00:58:21;;;;;;;19.67;11.25;;;;;;;-3.71;71.36;100802.45;1676963;84;21426;-89
2022/12/14 01:00:59;;;;;;;18.02;11.22;;;;;;;-3.64;71.36;100801.30;1679669;84;21974;-89
2022/12/14 01:03:26;;;;;;;16.12;11.00;;;;;;;-3.61;71.21;100795.48;1675953;84;21087;-82
2022/12/14 01:05:53;;;;;;;18.27;11.57;;;;;;;-3.61;71.11;100796.37;1682217;84;21092;-82
2022/12/14 01:08:21;;;;;;;18.42;10.28;;;;;;;-3.62;71.06;100792.02;1675288;84;21078;-89
2022/12/14 01:10:48;;;;;;;17.10;9.80;;;;;;;-3.60;71.01;100793.44;1673984;84;21603;-89
2022/12/14 01:13:15;;;;;;;18.35;10.68;;;;;;;-3.60;70.95;100794.33;1679023;84;22498;-82
2022/12/14 01:15:41;;;;;;;15.63;10.35;;;;;;;-3.60;70.91;100801.16;1673480;84;21940;-81
2022/12/14 01:18:08;;;;;;;17.65;9.95;;;;;;;-3.61;70.86;100796.37;1682980;84;21067;-82
2022/12/14 01:20:35;;;;;;;17.15;10.38;;;;;;;-3.61;70.82;100791.62;1675031;84;21132;-88
2022/12/14 01:23:02;;;;;;;16.27;9.63;;;;;;;-3.61;70.73;100789.05;1678419;84;21075;-82
2022/12/14 01:25:29;;;;;;;14.85;9.20;;;;;;;-3.63;70.70;100785.06;1674702;84;22987;-82
2022/12/14 01:27:56;;;;;;;15.25;9.85;;;;;;;-3.67;70.58;100785.59;1675687;84;21549;-81
2022/12/14 01:30:23;;;;;;;14.90;10.00;;;;;;;-3.72;70.50;100788.16;1679616;84;21628;-89
2022/12/14 01:32:50;;;;;;;14.95;9.68;;;;;;;-3.76;70.45;100787.41;1682382;84;21087;-89
2022/12/14 01:35:17;;;;;;;16.82;9.30;;;;;;;-3.83;70.48;100780.88;1678960;84;21075;-90
2022/12/14 01:37:51;;;;;;;15.88;9.78;;;;;;;-3.88;70.43;100778.30;1683922;84;21809;-89
2022/12/14 01:40:18;;;;;;;19.55;9.60;;;;;;;-3.93;70.46;100783.05;1681909;84;21067;-89
2022/12/14 01:42:44;;;;;;;15.08;9.68;;;;;;;-3.98;70.46;100779.58;1675312;84;21067;-89
2022/12/14 01:45:22;;;;;;;14.28;9.75;;;;;;;-4.06;70.40;100776.37;1689986;84;21079;-89
2022/12/14 01:47:55;;;;;;;18.82;9.75;;;;;;;-4.14;70.41;100779.98;1685233;84;21139;-89
2022/12/14 01:50:29;;;;;;;16.97;10.70;;;;;;;-4.20;70.47;100780.77;1684745;84;21774;-89
2022/12/14 01:53:00;;;;;;;15.88;10.13;;;;;;;-4.27;70.49;100771.63;1677664;84;21083;-89
2022/12/14 01:55:51;;;;;;;16.80;10.32;;;;;;;-4.33;70.43;100777.16;1655698;84;21165;-89
2022/12/14 01:58:25;;;;;;;18.25;10.80;;;;;;;-4.41;70.42;100774.70;1673826;84;21076;-90
2022/12/14 02:00:57;;;;;;;16.60;10.03;;;;;;;-4.48;70.60;100770.73;1638137;84;21135;-82
2022/12/14 02:03:32;;;;;;;16.48;9.63;;;;;;;-4.50;70.63;100773.16;1676412;84;21744;-83
2022/12/14 02:06:06;;;;;;;15.13;10.45;;;;;;;-4.55;70.64;100772.25;1684086;84;21241;-81
2022/12/14 02:08:33;;;;;;;16.10;9.95;;;;;;;-4.62;70.62;100775.06;1677695;84;21083;-80
2022/12/14 02:10:59;;;;;;;20.72;10.98;;;;;;;-4.68;70.68;100783.14;1682027;84;21661;-80
2022/12/14 02:13:32;;;;;;;17.60;10.80;;;;;;;-4.74;70.65;100780.95;1687942;84;21134;-80
2022/12/14 02:15:59;;;;;;;21.17;11.55;;;;;;;-4.80;70.73;100774.41;1677735;84;21787;-80
2022/12/14 02:18:29;;;;;;;16.62;9.65;;;;;;;-4.87;70.71;100775.92;1678412;84;21258;-88
2022/12/14 02:21:30;;;;;;;18.02;10.98;;;;;;;-4.93;70.76;100773.72;1680610;84;22015;-87
2022/12/14 02:24:17;;;;;;;16.60;10.43;;;;;;;-4.95;70.83;100779.11;1679761;84;21172;-80
2022/12/14 02:27:13;;;;;;;22.17;11.00;;;;;;;-5.00;70.82;100779.97;1682449;84;21013;-81
2022/12/14 02:30:23;;;;;;;18.67;11.20;;;;;;;-5.05;70.85;100779.95;1687589;83;21766;-82
2022/12/14 02:33:19;;;;;;;22.42;10.72;;;;;;;-5.11;70.93;100777.74;1681577;84;20978;-82
2022/12/14 02:36:03;;;;;;;18.12;11.25;;;;;;;-5.14;71.00;100773.65;1682505;84;21013;-81
2022/12/14 02:38:50;;;;;;;19.85;10.98;;;;;;;-5.15;71.11;100774.79;1650287;84;21963;-81
2022/12/14 02:41:28;;;;;;;16.48;11.25;;;;;;;-5.16;71.12;100777.75;1683961;84;21032;-81
2022/12/14 02:44:17;;;;;;;17.42;10.43;;;;;;;-5.19;71.14;100781.71;1677982;84;22922;-81
2022/12/14 02:47:17;;;;;;;20.02;11.48;;;;;;;-5.22;71.21;100780.14;1678311;84;21585;-88
2022/12/14 02:50:03;;;;;;;19.90;11.70;;;;;;;-5.23;71.28;100784.78;1677923;84;21099;-88
2022/12/14 02:52:55;;;;;;;18.10;11.55;;;;;;;-5.23;71.34;100785.67;1679514;84;21084;-88
2022/12/14 02:55:35;;;;;;;18.87;10.63;;;;;;;-5.25;71.39;100789.77;1677647;84;21060;-89
2022/12/14 02:58:11;;;;;;;18.35;11.75;;;;;;;-5.28;71.33;100781.39;1680805;84;21756;-88
2022/12/14 03:00:38;;;;;;;20.60;11.55;;;;;;;-5.31;71.44;100786.28;1686007;84;21407;-88
2022/12/14 03:03:05;;;;;;;20.15;10.75;;;;;;;-5.31;71.44;100782.44;1687808;84;21079;-81
2022/12/14 03:05:32;;;;;;;19.12;10.90;;;;;;;-5.32;71.43;100781.00;1683613;84;21114;-81
2022/12/14 03:08:12;;;;;;;19.80;11.60;;;;;;;-5.32;71.46;100774.59;1673230;84;21039;-88
2022/12/14 03:10:49;;;;;;;16.60;10.40;;;;;;;-5.34;71.43;100765.86;1682029;84;21856;-87
2022/12/14 03:13:24;;;;;;;16.42;10.48;;;;;;;-5.35;71.48;100760.20;1694732;84;21326;-80
2022/12/14 03:15:59;;;;;;;18.50;11.12;;;;;;;-5.36;71.46;100763.16;1671064;84;21703;-87
2022/12/14 03:18:29;;;;;;;35.15;18.52;;;;;;;-5.38;71.50;100754.82;1680421;84;22398;-90
2022/12/14 03:20:56;;;;;;;50.63;20.62;;;;;;;-5.38;71.48;100756.10;1677681;84;21128;-88
2022/12/14 03:23:26;;;;;;;33.60;16.90;;;;;;;-5.37;71.49;100758.78;1692652;84;21905;-80
2022/12/14 03:26:16;;;;;;;45.28;20.23;;;;;;;-5.38;71.47;100756.10;1680225;84;21075;-82
2022/12/14 03:28:55;;;;;;;60.88;25.35;;;;;;;-5.40;71.45;100762.37;1671766;84;21096;-83
2022/12/14 03:31:39;;;;;;;51.40;22.30;;;;;;;-5.41;71.51;100771.21;1698979;83;21123;-81
2022/12/14 03:34:07;;;;;;;;;;;;;;;-5.42;71.50;100770.32;1697315;84;22011;-81
2022/12/14 03:36:48;;;;;;;52.75;25.15;;;;;;;-5.45;71.42;100773.89;1683876;84;21781;-82
2022/12/14 03:39:26;;;;;;;71.95;28.67;;;;;;;-5.48;71.44;100774.53;1666131;84;22023;-81
2022/12/14 03:42:16;;;;;;;106.78;45.00;;;;;;;-5.50;71.44;100768.36;1688886;84;21043;-80
2022/12/14 03:44:51;;;;;;;72.40;31.02;;;;;;;-5.52;71.45;100768.97;1679812;84;21170;-89
2022/12/14 03:47:59;;;;;;;95.45;40.25;;;;;;;-5.53;71.48;100773.20;1678937;83;21096;-81
2022/12/14 03:50:43;;;;;;;120.02;46.90;;;;;;;-5.52;71.57;100776.30;1674565;84;21890;-82
2022/12/14 03:53:21;;;;;;;125.07;46.95;;;;;;;-5.53;71.48;100772.31;1669321;84;21119;-89
2022/12/14 03:55:56;;;;;;;114.75;43.80;;;;;;;-5.58;71.41;100772.28;1679247;83;21067;-81
2022/12/14 03:58:37;;;;;;;67.70;29.07;;;;;;;-5.61;71.45;100778.05;1665253;84;21172;-81
2022/12/14 04:01:18;;;;;;;57.53;22.52;;;;;;;-5.64;71.43;100772.63;1688595;84;21075;-81
2022/12/14 04:04:06;;;;;;;53.73;23.52;;;;;;;-5.66;71.48;100773.77;1681929;84;22653;-88
2022/12/14 04:06:55;;;;;;;27.32;14.28;;;;;;;-5.70;71.47;100772.98;1678783;84;21056;-87
2022/12/14 04:09:45;;;;;;;21.73;12.85;;;;;;;-5.74;71.51;100770.91;1683570;84;21032;-88
2022/12/14 04:21:00;;;;;;;27.20;13.72;;;;;;;-5.92;71.43;100768.86;1671703;84;21080;-82
2022/12/14 04:26:23;;;;;;;38.60;18.90;;;;;;;-6.05;71.35;100764.70;1679357;84;21139;-82
2022/12/14 04:31:45;;;;;;;70.85;28.40;;;;;;;-6.22;71.26;100767.02;1684950;84;21788;-82
2022/12/14 04:34:11;;;;;;;54.65;23.90;;;;;;;-6.30;71.25;100767.98;1682755;84;21071;-81
2022/12/14 04:36:44;;;;;;;53.15;24.25;;;;;;;-6.37;71.31;100762.66;1685821;84;21059;-83
2022/12/14 04:39:21;;;;;;;39.88;20.20;;;;;;;-6.45;71.31;100763.63;1678204;84;21059;-82
2022/12/14 04:41:50;;;;;;;42.10;22.17;;;;;;;-6.50;71.35;100754.61;1682658;84;21969;-82
2022/12/14 04:44:23;;;;;;;60.90;25.68;;;;;;;-6.54;71.44;100765.34;1683264;84;22813;-81
2022/12/14 04:46:50;;;;;;;79.67;29.67;;;;;;;-6.59;71.45;100766.56;1681783;84;21107;-89
2022/12/14 04:52:06;;;;;;;74.42;28.40;;;;;;;-6.70;71.54;100762.99;1688022;84;21004;-88
2022/12/14 04:54:53;;;;;;;58.95;23.12;;;;;;;-6.73;71.57;100757.61;1679787;84;20992;-88
2022/12/14 04:57:28;;;;;;;124.67;42.30;;;;;;;-6.78;71.57;100762.67;1679601;84;21763;-89
2022/12/14 04:59:55;;;;;;;159.27;50.63;;;;;;;-6.84;71.61;100766.84;1670758;84;21091;-90
2022/12/14 05:02:45;;;;;;;118.53;38.25;;;;;;;-6.88;71.63;100755.80;1677161;84;22142;-80
2022/12/14 05:05:26;;;;;;;123.22;38.60;;;;;;;-6.93;71.67;100754.06;1688830;84;21123;-89
2022/12/14 05:08:04;;;;;;;154.15;45.85;;;;;;;-6.95;71.75;100750.84;1681150;84;21119;-81
2022/12/14 05:10:43;;;;;;;143.60;47.78;;;;;;;-6.96;71.83;100741.00;1674759;84;21905;-81
2022/12/14 05:13:24;;;;;;;138.77;46.85;;;;;;;-6.97;71.81;100743.02;1652306;84;21145;-81
2022/12/14 05:15:53;;;;;;;113.92;40.23;;;;;;;-7.01;71.81;100743.89;1674715;84;21563;-82
2022/12/14 05:18:22;;;;;;;112.12;38.38;;;;;;;-7.05;71.84;100743.59;1681651;84;21068;-88
2022/12/14 05:20:49;;;;;;;110.22;39.27;;;;;;;-7.07;71.87;100743.83;1676685;84;21544;-91
2022/12/14 05:23:16;;;;;;;140.35;43.55;;;;;;;-7.08;71.90;100741.11;1673532;84;21904;-88
2022/12/14 05:25:43;;;;;;;166.95;55.03;;;;;;;-7.10;71.93;100736.23;1679847;84;21079;-83
2022/12/14 05:28:10;;;;;;;100.85;36.30;;;;;;;-7.11;71.94;100735.73;1683922;84;21051;-83
2022/12/14 05:30:37;;;;;;;65.15;25.30;;;;;;;-7.13;71.96;100726.62;1678670;84;21096;-84
2022/12/14 05:33:04;;;;;;;69.55;25.92;;;;;;;-7.14;71.93;100730.31;1681524;84;21115;-89
2022/12/14 05:35:31;;;;;;;74.47;28.15;;;;;;;-7.18;71.91;100727.84;1679603;84;21765;-88
2022/12/14 05:37:58;;;;;;;63.95;29.90;;;;;;;-7.19;72.00;100723.85;1678352;84;21096;-81
2022/12/14 05:40:26;;;;;;;86.75;33.53;;;;;;;-7.19;72.04;100720.91;1677544;84;21047;-86
2022/12/14 05:43:06;;;;;;;89.28;36.83;;;;;;;-7.21;72.01;100718.59;1670862;84;21083;-88
2022/12/14 05:45:33;;;;;;;96.80;38.42;;;;;;;-7.22;72.01;100731.26;1682366;84;21076;-86
2022/12/14 05:48:00;;;;;;;96.12;38.02;;;;;;;-7.21;72.19;100724.98;1676278;84;21752;-88
2022/12/14 05:50:27;;;;;;;97.30;40.48;;;;;;;-7.18;72.18;100732.06;1677143;84;21607;-88
2022/12/14 05:52:54;;;;;;;107.50;45.40;;;;;;;-7.18;72.21;100737.18;1678191;84;22308;-89
2022/12/14 05:55:21;;;;;;;88.22;34.10;;;;;;;-7.16;72.23;100734.00;1678782;84;21109;-85
2022/12/14 05:57:48;;;;;;;133.47;47.45;;;;;;;-7.19;72.16;100738.81;1682859;84;21106;-87
2022/12/14 06:00:15;;;;;;;97.40;40.00;;;;;;;-7.22;72.16;100736.38;1676517;84;21799;-84
2022/12/14 06:02:42;;;;;;;107.22;42.50;;;;;;;-7.27;72.04;100733.36;1674386;84;21079;-78
2022/12/14 06:05:09;;;;;;;77.35;33.35;;;;;;;-7.33;72.11;100736.62;1674821;84;21106;-82
2022/12/14 06:07:38;;;;;;;65.92;29.10;;;;;;;-7.30;72.25;100736.89;1682509;84;21326;-87
2022/12/14 06:10:06;;;;;;;57.85;27.90;;;;;;;-7.30;72.26;100739.45;1639160;84;36602;-88
2022/12/14 06:12:33;;;;;;;55.23;26.80;;;;;;;-7.31;72.25;100733.44;1679991;84;21983;-91
2022/12/14 06:15:00;;;;;;;46.95;24.30;;;;;;;-7.33;72.20;100737.52;1656888;84;21588;-88
2022/12/14 06:17:28;;;;;;;52.33;25.15;;;;;;;-7.36;72.17;100737.59;1681420;84;21580;-90
2022/12/14 06:19:55;;;;;;;50.52;23.02;;;;;;;-7.34;72.33;100733.52;1675872;84;21143;-82
2022/12/14 06:22:27;;;;;;;53.80;24.70;;;;;;;-7.33;72.33;100731.51;1677993;84;21071;-89
2022/12/14 06:24:53;;;;;;;55.90;26.85;;;;;;;-7.33;72.31;100736.62;1671444;84;21760;-84
2022/12/14 06:27:20;;;;;;;67.08;33.35;;;;;;;-7.32;72.39;100737.12;1681268;84;21084;-84
2022/12/14 06:29:47;;;;;;;72.00;34.63;;;;;;;-7.35;72.26;100736.86;1683535;84;21515;-85
2022/12/14 06:32:14;;;;;;;70.52;35.48;;;;;;;-7.40;72.18;100737.67;1683368;84;21118;-91
2022/12/14 06:34:40;;;;;;;64.32;32.90;;;;;;;-7.46;72.16;100729.05;1679455;84;21071;-84
2022/12/14 06:37:07;;;;;;;63.52;33.65;;;;;;;-7.48;72.23;100735.67;1668602;84;21993;-84
2022/12/14 06:39:34;;;;;;;69.12;36.15;;;;;;;-7.47;72.30;100742.95;1677885;84;21400;-84
2022/12/14 06:42:01;;;;;;;67.97;35.28;;;;;;;-7.50;72.25;100740.12;1680445;84;21561;-91
2022/12/14 06:44:27;;;;;;;66.67;35.92;;;;;;;-7.48;72.29;100743.34;1677838;84;21679;-90
2022/12/14 06:46:54;;;;;;;70.67;38.30;;;;;;;-7.49;72.17;100747.02;1682472;84;21111;-84
2022/12/14 06:49:21;;;;;;;71.30;34.53;;;;;;;-7.51;72.19;100748.53;1680481;84;23030;-84
2022/12/14 06:51:48;;;;;;;62.13;34.05;;;;;;;-7.50;72.26;100755.46;1681394;84;21005;-84
2022/12/14 06:54:16;;;;;;;65.85;35.73;;;;;;;-7.50;72.25;100755.08;1657298;84;20992;-90
2022/12/14 06:56:44;;;;;;;77.55;40.92;;;;;;;-7.49;72.24;100760.73;1688676;84;21083;-90
2022/12/14 06:59:12;;;;;;;69.32;38.80;;;;;;;-7.50;72.20;100761.47;1680436;84;21079;-84
2022/12/14 07:01:38;;;;;;;69.67;39.90;;;;;;;-7.50;72.21;100756.73;1675206;84;21786;-84
2022/12/14 07:04:06;;;;;;;63.70;36.73;;;;;;;-7.50;72.26;100761.85;1679403;84;21730;-84
2022/12/14 07:06:36;;;;;;;66.30;37.13;;;;;;;-7.49;72.27;100750.85;1676346;84;21577;-84
2022/12/14 07:09:04;;;;;;;71.82;38.40;;;;;;;-7.49;72.26;100748.30;1685418;84;21549;-89
2022/12/14 07:11:32;;;;;;;62.60;34.55;;;;;;;-7.50;72.28;100747.41;1678754;84;21087;-84
2022/12/14 07:14:06;;;;;;;64.20;33.67;;;;;;;-7.49;72.26;100746.66;1678748;84;21792;-84
2022/12/14 07:16:30;;;;;;;61.60;34.40;;;;;;;-7.49;72.33;100745.39;1676747;84;21580;-84
2022/12/14 07:18:58;;;;;;;56.65;31.60;;;;;;;-7.43;72.42;100748.91;1677745;84;21126;-90
2022/12/14 07:21:24;;;;;;;53.60;28.50;;;;;;;-7.36;72.50;100751.66;1674017;84;21083;-90
2022/12/14 07:23:51;;;;;;;55.05;30.17;;;;;;;-7.33;72.40;100749.41;1687133;84;21091;-90
2022/12/14 07:26:26;;;;;;;61.77;31.05;;;;;;;-7.32;72.39;100752.47;1686215;84;22004;-90
2022/12/14 07:28:59;;;;;;;58.80;28.23;;;;;;;-7.31;72.45;100753.90;1679509;84;21079;-90
2022/12/14 07:31:27;;;;;;;57.93;28.27;;;;;;;-7.26;72.51;100751.80;1686877;84;21052;-84
2022/12/14 07:33:56;;;;;;;66.10;33.28;;;;;;;-7.21;72.53;100750.94;1682454;84;21089;-84
2022/12/14 07:36:23;;;;;;;68.35;34.92;;;;;;;-7.17;72.52;100745.00;1682487;84;21004;-84
2022/12/14 07:38:50;;;;;;;56.77;29.72;;;;;;;-7.11;72.61;100744.30;1685596;84;22997;-83
2022/12/14 07:41:22;;;;;;;73.62;35.73;;;;;;;-7.05;72.62;100743.59;1675302;84;21095;-90
2022/12/14 07:43:55;;;;;;;76.17;36.23;;;;;;;-7.01;72.53;100746.44;1675532;84;21095;-90
2022/12/14 07:46:24;;;;;;;52.90;28.60;;;;;;;-6.97;72.56;100742.13;1684795;84;22321;-89
2022/12/14 07:48:53;;;;;;;47.25;26.52;;;;;;;-6.93;72.60;100748.95;1665983;84;21091;-83
2022/12/14 07:51:27;;;;;;;51.92;26.30;;;;;;;-6.87;72.56;100750.83;1681894;84;21750;-89
2022/12/14 07:53:54;;;;;;;48.30;27.75;;;;;;;-6.83;72.57;100748.17;1681609;84;21103;-83
2022/12/14 07:56:23;;;;;;;54.00;26.57;;;;;;;-6.79;72.59;100751.89;1681616;84;21068;-83
2022/12/14 07:58:50;;;;;;;49.40;25.77;;;;;;;-6.71;72.66;100749.69;1685155;84;21147;-84
2022/12/14 08:01:21;;;;;;;54.25;28.60;;;;;;;-6.62;72.68;100749.63;1682723;84;21080;-90
2022/12/14 08:03:56;;;;;;;51.68;26.70;;;;;;;-6.57;72.64;100741.64;1679479;84;22944;-90
2022/12/14 08:06:24;;;;;;;48.42;27.10;;;;;;;-6.50;72.65;100743.09;1683263;84;21151;-83
2022/12/14 08:08:51;;;;;;;58.38;31.30;;;;;;;-6.43;72.67;100748.02;1675755;84;21130;-83
2022/12/14 08:11:18;;;;;;;61.65;32.60;;;;;;;-6.36;72.74;100745.63;1652985;84;21173;-83
2022/12/14 08:13:45;;;;;;;53.35;29.32;;;;;;;-6.28;72.69;100746.86;1679948;84;21087;-84
2022/12/14 08:16:15;;;;;;;57.45;26.65;;;;;;;-6.19;72.72;100747.17;1677944;84;23068;-84
2022/12/14 08:18:42;;;;;;;53.10;27.05;;;;;;;-6.13;72.61;100745.19;1682187;84;21095;-83
2022/12/14 08:21:19;;;;;;;53.95;26.50;;;;;;;-6.09;72.60;100743.41;1678408;84;21099;-90
2022/12/14 08:23:44;;;;;;;39.25;23.00;;;;;;;-6.03;72.59;100743.97;1683725;84;21131;-90
2022/12/14 08:26:11;;;;;;;51.45;25.48;;;;;;;-5.97;72.57;100743.62;1667469;84;21100;-84
2022/12/14 08:28:37;;;;;;;48.80;25.20;;;;;;;-5.90;72.61;100740.81;1683032;84;21856;-84
2022/12/14 08:31:10;;;;;;;43.42;24.77;;;;;;;-5.82;72.54;100746.23;1679476;84;21555;-84
2022/12/14 08:33:37;;;;;;;47.62;24.27;;;;;;;-5.77;72.50;100756.53;1673344;84;21075;-84
2022/12/14 08:36:11;;;;;;;46.48;24.67;;;;;;;-5.72;72.41;100744.14;1683229;84;21637;-84
2022/12/14 08:38:40;;;;;;;45.30;24.87;;;;;;;-5.68;72.37;100738.52;1675887;84;21103;-90
2022/12/14 08:41:10;;;;;;;48.80;24.35;;;;;;;-5.62;72.41;100732.64;1684134;84;21786;-90
2022/12/14 08:43:39;;;;;;;44.95;23.50;;;;;;;-5.55;72.39;100727.30;1676058;83;21099;-90
2022/12/14 08:46:11;;;;;;;50.00;24.75;;;;;;;-5.50;72.34;100728.97;1683485;84;21060;-92
2022/12/14 08:48:38;;;;;;;49.27;25.97;;;;;;;-5.44;72.34;100727.32;1683080;84;21618;-91
2022/12/14 08:51:08;;;;;;;48.10;27.17;;;;;;;-5.35;72.32;100730.34;1676455;84;21155;-85
2022/12/14 08:53:36;;;;;;;48.60;27.40;;;;;;;-5.31;72.29;100713.52;1682875;84;22587;-85
2022/12/14 08:56:07;;;;;;;55.90;28.27;;;;;;;-5.23;72.18;100719.34;1682778;84;21170;-85
2022/12/14 08:58:39;;;;;;;53.58;27.87;;;;;;;-5.16;72.22;100715.23;1686000;84;21052;-92
2022/12/14 09:01:12;;;;;;;56.58;29.37;;;;;;;-5.12;72.05;100717.33;1679074;84;21106;-90
2022/12/14 09:03:43;;;;;;;52.15;29.10;;;;;;;-5.12;71.98;100709.23;1678612;84;21130;-90
2022/12/14 09:06:13;;;;;;;53.73;28.42;;;;;;;-5.09;71.97;100713.72;1686099;84;21750;-83
2022/12/14 09:08:39;;;;;;;51.63;28.45;;;;;;;-5.08;71.94;100713.86;1685573;84;21071;-83
2022/12/14 09:11:11;;;;;;;61.73;30.57;;;;;;;-5.03;71.98;100711.70;1682587;84;21142;-84
2022/12/14 09:13:38;;;;;;;52.83;31.30;;;;;;;-5.03;71.99;100714.27;1685528;84;22044;-83
2022/12/14 09:16:09;;;;;;;67.58;35.90;;;;;;;-5.00;72.03;100720.05;1670876;84;21120;-84
2022/12/14 09:18:36;;;;;;;79.75;37.80;;;;;;;-4.98;72.04;100712.09;1683545;84;21804;-84
2022/12/14 09:21:03;;;;;;;92.55;44.58;;;;;;;-4.91;72.08;100715.70;1681594;84;21769;-83
2022/12/14 09:23:30;;;;;;;83.58;41.00;;;;;;;-4.86;71.95;100710.95;1685936;84;21102;-84
2022/12/14 09:26:05;;;;;;;56.55;32.30;;;;;;;-4.87;71.86;100701.47;1685704;84;21491;-91
2022/12/14 09:28:38;;;;;;;63.42;37.60;;;;;;;-4.87;71.78;100698.50;1686634;84;21119;-91
2022/12/14 09:31:08;;;;;;;62.20;37.20;;;;;;;-4.91;71.64;100706.72;1683469;84;21783;-84
2022/12/14 09:33:35;;;;;;;62.23;33.88;;;;;;;-5.01;71.51;100707.60;1676573;84;21079;-84
2022/12/14 09:36:04;;;;;;;57.70;33.50;;;;;;;-5.02;71.60;100704.90;1674128;84;21663;-84
2022/12/14 09:38:33;;;;;;;61.00;32.88;;;;;;;-5.04;71.59;100704.77;1684413;84;21537;-84
2022/12/14 09:41:03;;;;;;;65.85;34.05;;;;;;;-5.06;71.60;100704.13;1674821;84;21636;-84
2022/12/14 09:43:44;;;;;;;66.37;35.78;;;;;;;-5.03;71.61;100701.44;1676920;84;21865;-90
2022/12/14 09:46:32;;;;;;;62.13;32.30;;;;;;;-4.96;71.67;100701.56;1680674;84;21596;-90
2022/12/14 09:49:00;;;;;;;62.23;35.08;;;;;;;-4.89;71.61;100698.76;1654236;84;21103;-84
2022/12/14 09:51:35;;;;;;;62.27;33.85;;;;;;;-4.88;71.53;100700.53;1677116;84;21097;-90
2022/12/14 09:54:11;;;;;;;59.63;33.85;;;;;;;-4.80;71.64;100696.98;1679093;84;21111;-83
2022/12/14 09:56:39;;;;;;;64.65;36.15;;;;;;;-4.71;71.62;100701.61;1682367;84;21151;-91
2022/12/14 09:59:15;;;;;;;65.17;34.65;;;;;;;-4.61;71.68;100694.29;1683618;84;22254;-91
2022/12/14 10:01:47;;;;;;;50.30;30.45;;;;;;;-4.50;71.67;100686.20;1686305;84;21083;-90
2022/12/14 10:04:51;;;;;;;50.12;28.30;;;;;;;-4.39;71.62;100680.30;1678566;84;21153;-83
2022/12/14 10:07:23;;;;;;;52.98;30.23;;;;;;;-4.37;71.33;100681.70;1679036;84;21078;-90
2022/12/14 10:10:21;;;;;;;58.92;33.70;;;;;;;-4.35;71.35;100677.59;1681327;84;22836;-92
2022/12/14 10:13:06;;;;;;;65.80;34.40;;;;;;;-4.26;71.39;100669.72;1681626;84;21075;-90
2022/12/14 10:15:56;;;;;;;64.77;33.73;;;;;;;-4.12;71.48;100673.05;1681712;84;21116;-83
2022/12/14 10:18:43;;;;;;;60.35;31.07;;;;;;;-3.98;71.37;100672.88;1678198;84;21084;-85
2022/12/14 10:21:21;;;;;;;54.15;29.18;;;;;;;-3.94;70.95;100673.27;1676947;84;21076;-83
2022/12/14 10:23:59;;;;;;;60.90;32.15;;;;;;;-4.07;70.64;100669.20;1682897;84;21748;-90
2022/12/14 10:26:33;;;;;;;62.38;31.42;;;;;;;-4.19;70.63;100668.17;1676963;84;21103;-83
2022/12/14 10:29:04;;;;;;;64.07;35.13;;;;;;;-4.21;70.81;100665.87;1678105;84;21076;-83
2022/12/14 10:31:58;;;;;;;62.17;34.43;;;;;;;-4.12;71.05;100660.20;1680917;84;21302;-90
2022/12/14 10:34:28;;;;;;;62.95;32.95;;;;;;;-4.03;71.06;100657.09;1674925;84;21588;-90
2022/12/14 10:37:31;;;;;;;61.95;32.55;;;;;;;-3.93;71.13;100663.48;1673982;84;21794;-84
2022/12/14 10:40:19;;;;;;;57.98;29.35;;;;;;;-3.93;70.86;100667.34;1671901;84;21114;-92
2022/12/14 10:43:35;;;;;;;54.65;28.40;;;;;;;-3.99;70.84;100654.39;1675778;84;21157;-85
2022/12/14 10:46:43;;;;;;;55.98;29.12;;;;;;;-3.99;71.37;100645.39;1676514;84;21109;-93
2022/12/14 10:49:22;;;;;;;56.70;30.97;;;;;;;-3.97;71.46;100643.44;1675903;84;21650;-92
2022/12/14 10:51:58;;;;;;;53.58;29.00;;;;;;;-3.89;71.27;100659.88;1677320;84;21966;-91
2022/12/14 10:54:45;;;;;;;57.17;29.52;;;;;;;-3.83;71.27;100652.29;1663792;85;21289;-92
2022/12/14 10:57:18;;;;;;;56.98;29.95;;;;;;;-3.80;71.24;100647.37;1677778;84;22202;-90
2022/12/14 10:59:45;;;;;;;54.63;27.48;;;;;;;-3.80;71.21;100639.66;1651896;84;21113;-83
2022/12/14 11:02:15;;;;;;;59.65;30.82;;;;;;;-3.75;71.31;100640.05;1674454;84;21150;-84
2022/12/14 11:04:59;;;;;;;63.50;32.88;;;;;;;-3.73;71.30;100629.09;1676291;84;21960;-84
2022/12/14 11:07:35;;;;;;;;;;;;;;;-3.60;71.45;100630.08;1684988;84;21116;-91
2022/12/14 11:10:21;;;;;;;59.48;29.12;;;;;;;-3.49;71.44;100619.32;1673649;84;20769;-90
2022/12/14 11:13:18;;;;;;;58.28;30.50;;;;;;;-3.39;71.37;100621.86;1672954;85;21175;-90
2022/12/14 11:15:49;;;;;;;54.03;28.27;;;;;;;-3.38;71.16;100614.27;1647561;85;21763;-84
2022/12/14 11:18:29;;;;;;;54.40;28.17;;;;;;;-3.38;71.14;100614.62;1672955;84;21906;-90
2022/12/14 11:21:00;;;;;;;51.53;27.50;;;;;;;-3.35;71.13;100620.91;1670686;85;21161;-90
2022/12/14 11:23:41;;;;;;;53.05;30.08;;;;;;;-3.28;71.25;100614.58;1647434;87;21608;-91
2022/12/14 11:26:25;;;;;;;47.08;26.35;;;;;;;-3.20;71.22;100613.48;1647927;87;21130;-84
2022/12/14 11:28:56;;;;;;;54.33;27.70;;;;;;;-3.14;71.11;100614.35;1645866;87;21091;-84
2022/12/14 11:31:36;;;;;;;54.50;28.90;;;;;;;-3.09;71.08;100605.31;1646511;87;22450;-83
2022/12/14 11:34:26;;;;;;;52.65;28.52;;;;;;;-2.99;71.27;100592.34;1647044;87;21483;-90
2022/12/14 11:36:53;;;;;;;47.90;27.37;;;;;;;-2.83;71.19;100588.38;1645215;87;21698;-90
2022/12/14 11:39:23;;;;;;;50.45;27.77;;;;;;;-2.76;71.09;100585.09;1646716;87;21080;-84
2022/12/14 11:42:00;;;;;;;47.67;27.50;;;;;;;-2.67;70.97;100580.11;1659353;85;21567;-84
2022/12/14 11:44:30;;;;;;;47.55;25.17;;;;;;;-2.58;70.94;100578.22;1646996;86;22576;-90
2022/12/14 11:47:07;;;;;;;45.12;25.90;;;;;;;-2.55;70.75;100575.89;1656155;85;21065;-84
2022/12/14 11:49:44;;;;;;;44.77;24.40;;;;;;;-2.55;70.67;100574.20;1617920;86;21091;-84
2022/12/14 11:52:22;;;;;;;46.95;25.57;;;;;;;-2.56;70.46;100573.67;1645742;87;21649;-90
2022/12/14 11:54:57;;;;;;;43.00;24.32;;;;;;;-2.50;70.61;100576.21;1659446;85;21092;-84